createdAt,value
2019-05-22T00:00:16.749Z,99541.38
2019-05-22T00:02:47.419Z,99531.81
2019-05-22T00:05:18.068Z,99534.94
2019-05-22T00:07:48.907Z,99536.67
2019-05-22T00:10:25.042Z,99541.00
2019-05-22T00:12:54.804Z,99545.77
2019-05-22T00:15:24.868Z,99545.13
2019-05-22T00:17:54.454Z,99545.06
2019-05-22T00:20:25.863Z,99544.19
2019-05-22T00:22:55.127Z,99545.84
2019-05-22T00:25:26.667Z,99542.09
2019-05-22T00:27:55.816Z,99546.47
2019-05-22T00:30:28.986Z,99543.34
2019-05-22T00:33:00.090Z,99539.48
2019-05-22T00:35:29.293Z,99542.55
2019-05-22T00:37:58.557Z,99529.78
2019-05-22T00:40:29.043Z,99524.83
2019-05-22T00:43:05.014Z,99527.36
2019-05-22T00:45:31.377Z,99535.11
2019-05-22T00:48:02.448Z,99535.56
2019-05-22T00:50:34.284Z,99531.62
2019-05-22T00:53:20.661Z,99524.57
2019-05-22T00:55:49.688Z,99526.23
2019-05-22T00:58:23.092Z,99532.82
2019-05-22T01:00:56.375Z,99528.48
2019-05-22T01:03:29.993Z,99531.31
2019-05-22T01:05:59.122Z,99531.69
2019-05-22T01:08:28.691Z,99529.43
2019-05-22T01:10:57.971Z,99526.83
2019-05-22T01:13:34.543Z,99529.43
2019-05-22T01:16:05.484Z,99533.17
2019-05-22T01:18:35.969Z,99530.82
2019-05-22T01:21:06.627Z,99524.95
2019-05-22T01:23:36.726Z,99521.68
2019-05-22T01:26:05.842Z,99522.91
2019-05-22T01:28:37.197Z,99526.18
2019-05-22T01:31:16.555Z,99524.84
2019-05-22T01:33:47.227Z,99526.41
2019-05-22T01:36:20.473Z,99522.89
2019-05-22T01:38:49.537Z,99527.61
2019-05-22T01:41:21.398Z,99524.39
2019-05-22T01:43:52.292Z,99524.41
2019-05-22T01:46:22.110Z,99529.80
2019-05-22T01:48:53.859Z,99524.56
2019-05-22T01:51:23.021Z,99525.78
2019-05-22T01:53:52.056Z,99525.41
2019-05-22T01:56:21.256Z,99521.78
2019-05-22T01:58:50.818Z,99525.84
2019-05-22T02:01:21.682Z,99520.59
2019-05-22T02:03:52.216Z,99523.56
2019-05-22T02:06:23.350Z,99527.30
2019-05-22T02:09:13.517Z,99518.14
2019-05-22T02:11:43.773Z,99522.38
2019-05-22T02:14:15.531Z,99515.17
2019-05-22T02:16:56.217Z,99514.24
2019-05-22T02:19:16.587Z,99515.02
2019-05-22T02:21:45.997Z,99520.22
2019-05-22T02:24:16.108Z,99523.65
2019-05-22T02:26:46.080Z,99523.65
2019-05-22T02:29:17.019Z,99523.34
2019-05-22T02:31:47.746Z,99529.28
2019-05-22T02:34:17.066Z,99529.19
2019-05-22T02:36:46.168Z,99533.52
2019-05-22T02:39:18.316Z,99528.27
2019-05-22T02:41:58.002Z,99522.31
2019-05-22T02:44:28.949Z,99523.89
2019-05-22T02:47:17.096Z,99527.89
2019-05-22T02:49:31.070Z,99529.47
2019-05-22T02:52:01.000Z,99530.64
2019-05-22T02:54:31.695Z,99525.03
2019-05-22T02:57:01.407Z,99530.69
2019-05-22T02:59:31.476Z,99538.98
2019-05-22T03:02:02.152Z,99533.22
2019-05-22T03:04:53.815Z,99527.59
2019-05-22T03:07:25.823Z,99531.12
2019-05-22T03:09:55.385Z,99530.57
2019-05-22T03:12:24.422Z,99524.91
2019-05-22T03:14:54.587Z,99526.58
2019-05-22T03:17:31.598Z,99534.17
2019-05-22T03:20:03.724Z,99539.97
2019-05-22T03:22:44.700Z,99534.23
2019-05-22T03:25:18.225Z,99529.51
2019-05-22T03:27:50.823Z,99523.84
2019-05-22T03:30:33.869Z,99521.01
2019-05-22T03:33:05.200Z,99518.73
2019-05-22T03:35:47.696Z,99515.36
2019-05-22T03:38:18.202Z,99518.13
2019-05-22T03:40:50.647Z,99520.77
2019-05-22T03:43:29.150Z,99525.86
2019-05-22T03:45:59.130Z,99530.97
2019-05-22T03:48:35.112Z,99527.80
2019-05-22T03:51:12.702Z,99541.19
2019-05-22T03:53:42.448Z,99532.17
2019-05-22T03:56:12.648Z,99530.80
2019-05-22T03:58:42.286Z,99530.30
2019-05-22T04:01:11.577Z,99528.73
2019-05-22T04:03:40.951Z,99534.05
2019-05-22T04:06:10.006Z,99536.03
2019-05-22T04:08:39.859Z,99550.38
2019-05-22T04:11:10.411Z,99547.25
2019-05-22T04:13:40.096Z,99546.17
2019-05-22T04:16:10.754Z,99546.09
2019-05-22T04:18:40.829Z,99538.88
2019-05-22T04:21:10.068Z,99534.33
2019-05-22T04:23:40.091Z,99534.77
2019-05-22T04:26:11.225Z,99530.72
2019-05-22T04:28:52.674Z,99542.03
2019-05-22T04:31:44.467Z,99548.14
2019-05-22T04:34:13.543Z,99541.95
2019-05-22T04:36:42.623Z,99542.05
2019-05-22T04:39:24.569Z,99543.80
2019-05-22T04:41:55.164Z,99548.34
2019-05-22T04:44:24.404Z,99550.95
2019-05-22T04:46:54.146Z,99556.73
2019-05-22T04:49:24.567Z,99557.46
2019-05-22T04:51:53.799Z,99564.07
2019-05-22T04:54:22.985Z,99564.80
2019-05-22T04:56:52.344Z,99560.98
2019-05-22T04:59:21.500Z,99559.13
2019-05-22T05:01:50.494Z,99561.45
2019-05-22T05:04:19.565Z,99559.52
2019-05-22T05:06:49.906Z,99551.64
2019-05-22T05:09:19.513Z,99554.05
2019-05-22T05:11:48.591Z,99553.65
2019-05-22T05:14:17.666Z,99555.23
2019-05-22T05:16:47.634Z,99550.58
2019-05-22T05:19:16.653Z,99554.20
2019-05-22T05:21:45.687Z,99553.81
2019-05-22T05:24:14.711Z,99552.78
2019-05-22T05:26:44.705Z,99543.52
2019-05-22T05:29:28.585Z,99549.42
2019-05-22T05:31:59.050Z,99546.72
2019-05-22T05:34:36.088Z,99558.61
2019-05-22T05:37:06.838Z,99547.95
2019-05-22T05:39:42.883Z,99549.30
2019-05-22T05:42:11.993Z,99555.23
2019-05-22T05:44:41.016Z,99561.38
2019-05-22T05:47:10.126Z,99571.73
2019-05-22T05:49:39.356Z,99578.80
2019-05-22T05:52:10.221Z,99582.16
2019-05-22T05:54:39.282Z,99571.26
2019-05-22T05:57:38.811Z,99566.77
2019-05-22T06:00:14.213Z,99576.73
2019-05-22T06:02:56.155Z,99582.08
2019-05-22T06:05:14.262Z,99576.80
2019-05-22T06:07:43.298Z,99570.66
2019-05-22T06:10:37.961Z,99572.31
2019-05-22T06:13:07.342Z,99580.77
2019-05-22T06:15:54.908Z,99572.05
2019-05-22T06:18:36.540Z,99568.22
2019-05-22T06:21:06.307Z,99574.28
2019-05-22T06:23:44.157Z,99556.33
2019-05-22T06:26:26.777Z,99557.38
2019-05-22T06:28:57.467Z,99574.33
2019-05-22T06:31:59.343Z,99567.19
2019-05-22T06:34:28.587Z,99562.99
2019-05-22T06:36:58.889Z,99574.89
2019-05-22T06:39:28.013Z,99562.89
2019-05-22T06:41:57.010Z,99566.84
2019-05-22T06:44:35.294Z,99577.83
2019-05-22T06:47:05.993Z,99578.91
2019-05-22T06:49:37.982Z,99568.85
2019-05-22T06:52:07.641Z,99595.87
2019-05-22T06:54:37.555Z,99588.91
2019-05-22T06:57:09.131Z,99586.39
2019-05-22T06:59:38.534Z,99592.27
2019-05-22T07:02:09.604Z,99586.22
2019-05-22T07:04:39.085Z,99579.69
2019-05-22T07:07:11.803Z,99585.87
2019-05-22T07:09:41.216Z,99591.41
2019-05-22T07:12:10.959Z,99590.55
2019-05-22T07:14:47.749Z,99585.57
2019-05-22T07:17:18.592Z,99588.14
2019-05-22T07:19:49.007Z,99592.98
2019-05-22T07:22:18.529Z,99597.48
2019-05-22T07:24:47.838Z,99604.51
2019-05-22T07:27:26.526Z,99601.25
2019-05-22T07:29:56.404Z,99597.80
2019-05-22T07:32:26.083Z,99599.59
2019-05-22T07:34:55.660Z,99607.74
2019-05-22T07:37:25.101Z,99596.34
2019-05-22T07:39:54.093Z,99606.34
2019-05-22T07:42:23.202Z,99602.41
2019-05-22T07:44:52.262Z,99621.62
2019-05-22T07:47:23.117Z,99600.46
2019-05-22T07:49:52.246Z,99603.80
2019-05-22T07:52:21.660Z,99595.80
2019-05-22T07:54:50.875Z,99595.24
2019-05-22T07:57:22.580Z,99606.36
2019-05-22T07:59:51.861Z,99604.89
2019-05-22T08:02:23.081Z,99604.54
2019-05-22T08:04:52.214Z,99610.23
2019-05-22T08:07:23.018Z,99610.23
2019-05-22T08:09:52.216Z,99613.40
2019-05-22T08:12:22.042Z,99605.84
2019-05-22T08:14:51.414Z,99613.78
2019-05-22T08:17:21.202Z,99610.94
2019-05-22T08:19:50.417Z,99610.94
2019-05-22T08:22:19.594Z,99629.16
2019-05-22T08:24:48.730Z,99622.23
2019-05-22T08:27:18.969Z,99622.73
2019-05-22T08:29:48.165Z,99629.94
2019-05-22T08:32:18.030Z,99629.94
2019-05-22T08:34:47.162Z,99631.72
2019-05-22T08:37:18.602Z,99634.03
2019-05-22T08:39:47.767Z,99634.03
2019-05-22T08:42:18.064Z,99631.83
2019-05-22T08:44:47.815Z,99639.93
2019-05-22T08:50:01.412Z,99659.92
2019-05-22T08:52:31.083Z,99640.61
2019-05-22T08:55:00.167Z,99660.64
2019-05-22T08:57:30.362Z,99660.64
2019-05-22T08:59:59.562Z,99674.19
2019-05-22T09:02:29.029Z,99674.19
2019-05-22T09:04:58.322Z,99694.09
2019-05-22T09:07:27.866Z,99674.55
2019-05-22T09:09:56.970Z,99648.63
2019-05-22T09:12:26.060Z,99667.23
2019-05-22T09:14:55.224Z,99673.98
2019-05-22T09:17:24.374Z,99672.14
2019-05-22T09:19:53.420Z,99681.66
2019-05-22T09:22:37.820Z,99699.83
2019-05-22T09:24:54.075Z,99699.83
2019-05-22T09:27:23.371Z,99709.72
2019-05-22T09:29:52.556Z,99709.72
2019-05-22T09:32:21.641Z,99705.58
2019-05-22T09:34:50.687Z,99702.73
2019-05-22T09:37:19.861Z,99707.23
2019-05-22T09:39:48.945Z,99707.92
2019-05-22T09:42:18.606Z,99707.92
2019-05-22T10:30:14.018Z,99733.46
2019-05-22T10:32:43.022Z,99730.09
2019-05-22T10:35:12.480Z,99733.56
2019-05-22T11:19:36.537Z,99751.92
2019-05-22T11:22:06.430Z,99760.11
2019-05-22T11:24:35.510Z,99754.70
2019-05-22T11:27:04.662Z,99753.20
2019-05-22T11:29:33.916Z,99759.50
2019-05-22T11:32:04.079Z,99754.47
2019-05-22T11:34:33.527Z,99771.64
2019-05-22T11:37:03.343Z,99769.69
2019-05-22T11:39:39.270Z,99760.03
2019-05-22T11:42:05.195Z,99767.39
2019-05-22T11:44:34.305Z,99768.10
2019-05-22T11:47:03.661Z,99763.91
2019-05-22T11:49:36.299Z,99768.98
2019-05-22T11:52:06.486Z,99768.16
2019-05-22T11:54:36.279Z,99770.07
2019-05-22T11:57:05.580Z,99775.53
2019-05-22T11:59:36.965Z,99772.20
2019-05-22T12:02:07.279Z,99787.41
2019-05-22T12:04:47.217Z,99781.53
2019-05-22T12:07:07.318Z,99783.53
2019-05-22T12:09:36.393Z,99784.36
2019-05-22T12:12:05.484Z,99786.09
2019-05-22T12:14:35.522Z,99781.92
2019-05-22T12:17:04.787Z,99780.00
2019-05-22T12:19:34.398Z,99780.38
2019-05-22T12:22:03.401Z,99780.23
2019-05-22T12:24:36.926Z,99784.48
2019-05-22T12:27:03.278Z,99775.43
2019-05-22T12:29:32.734Z,99762.67
2019-05-22T12:32:01.937Z,99768.69
2019-05-22T12:34:31.066Z,99769.22
2019-05-22T12:37:00.078Z,99767.75
2019-05-22T12:39:29.473Z,99772.55
2019-05-22T12:41:59.459Z,99773.66
2019-05-22T12:44:28.584Z,99775.36
2019-05-22T12:46:57.604Z,99780.37
2019-05-22T12:49:27.560Z,99781.17
2019-05-22T12:51:56.944Z,99773.00
2019-05-22T12:54:26.040Z,99769.58
2019-05-22T12:56:55.701Z,99767.42
2019-05-22T12:59:25.376Z,99769.34
2019-05-22T13:01:54.388Z,99768.75
2019-05-22T13:04:24.566Z,99764.55
2019-05-22T13:06:53.651Z,99762.47
2019-05-22T13:09:23.135Z,99762.97
2019-05-22T13:11:52.219Z,99764.94
2019-05-22T13:14:21.252Z,99763.83
2019-05-22T13:16:50.963Z,99771.45
2019-05-22T13:19:19.949Z,99773.98
2019-05-22T13:21:52.248Z,99775.16
2019-05-22T13:24:23.100Z,99790.18
2019-05-22T13:26:52.458Z,99791.86
2019-05-22T13:29:21.941Z,99795.40
2019-05-22T13:31:51.369Z,99790.27
2019-05-22T13:34:20.523Z,99785.67
2019-05-22T13:36:49.798Z,99789.22
2019-05-22T13:39:20.076Z,99787.41
2019-05-22T13:41:49.612Z,99783.41
2019-05-22T13:44:18.783Z,99777.02
2019-05-22T13:46:47.881Z,99773.86
2019-05-22T13:49:17.003Z,99773.52
2019-05-22T13:51:46.069Z,99773.77
2019-05-22T13:54:15.488Z,99778.55
2019-05-22T13:56:45.257Z,99767.04
2019-05-22T13:59:15.992Z,99767.03
2019-05-22T14:01:45.397Z,99771.32
2019-05-22T14:04:14.621Z,99778.20
2019-05-22T14:06:43.973Z,99759.53
2019-05-22T14:09:20.682Z,99771.28
2019-05-22T14:11:45.990Z,99773.48
2019-05-22T14:14:15.105Z,99769.09
2019-05-22T14:16:49.168Z,99764.80
2019-05-22T14:19:15.732Z,99779.58
2019-05-22T14:21:51.438Z,99774.05
2019-05-22T14:24:15.621Z,99779.92
2019-05-22T14:26:44.684Z,99767.93
2019-05-22T14:29:13.908Z,99783.86
2019-05-22T14:31:42.949Z,99774.91
2019-05-22T14:34:12.393Z,99783.97
2019-05-22T14:36:41.859Z,99774.98
2019-05-22T14:39:12.867Z,99790.28
2019-05-22T14:41:41.913Z,99795.40
2019-05-22T14:44:10.928Z,99802.83
2019-05-22T14:46:40.008Z,99802.65
2019-05-22T14:49:09.074Z,99803.84
2019-05-22T14:51:38.366Z,99807.88
2019-05-22T14:54:07.544Z,99804.80
2019-05-22T14:56:36.729Z,99802.65
2019-05-22T14:59:06.329Z,99801.38
2019-05-22T15:01:35.413Z,99798.81
2019-05-22T15:04:05.264Z,99799.70
2019-05-22T15:06:34.404Z,99797.06
2019-05-22T15:09:04.643Z,99795.55
2019-05-22T15:11:33.737Z,99794.86
2019-05-22T15:14:02.933Z,99789.70
2019-05-22T15:16:32.093Z,99788.73
2019-05-22T15:19:01.103Z,99786.52
2019-05-22T15:21:30.254Z,99782.67
2019-05-22T15:23:59.562Z,99787.02
2019-05-22T15:26:29.016Z,99789.72
2019-05-22T15:28:58.085Z,99792.58
2019-05-22T15:31:27.188Z,99790.66
2019-05-22T15:33:56.581Z,99798.81
2019-05-22T15:36:26.070Z,99797.62
2019-05-22T15:38:55.232Z,99805.91
2019-05-22T15:41:25.901Z,99792.77
2019-05-22T15:43:54.954Z,99799.69
2019-05-22T15:46:24.651Z,99810.48
2019-05-22T15:48:53.675Z,99801.25
2019-05-22T15:51:26.350Z,99802.08
2019-05-22T15:53:57.229Z,99795.15
2019-05-22T15:56:31.201Z,99787.11
2019-05-22T15:59:00.539Z,99799.31
2019-05-22T16:01:29.958Z,99800.45
2019-05-22T16:03:59.253Z,99807.98
2019-05-22T16:06:29.096Z,99817.11
2019-05-22T16:08:58.416Z,99818.41
2019-05-22T16:11:27.672Z,99814.41
2019-05-22T16:13:57.905Z,99817.11
2019-05-22T16:16:26.933Z,99816.48
2019-05-22T16:19:00.300Z,99816.58
2019-05-22T16:21:29.510Z,99814.72
2019-05-22T16:23:59.325Z,99815.69
2019-05-22T16:26:28.824Z,99814.32
2019-05-22T16:28:57.815Z,99822.62
2019-05-22T16:31:26.918Z,99826.13
2019-05-22T16:33:56.116Z,99830.84
2019-05-22T16:36:25.818Z,99836.81
2019-05-22T16:38:55.411Z,99845.00
2019-05-22T16:41:24.507Z,99843.60
2019-05-22T16:43:53.562Z,99846.66
2019-05-22T16:46:23.463Z,99847.61
2019-05-22T16:48:52.483Z,99850.06
2019-05-22T16:51:22.456Z,99854.56
2019-05-22T16:54:04.342Z,99857.58
2019-05-22T16:56:34.468Z,99859.66
2019-05-22T16:59:03.904Z,99854.73
2019-05-22T17:01:33.271Z,99848.25
2019-05-22T17:04:03.106Z,99854.88
2019-05-22T17:06:32.495Z,99851.40
2019-05-22T17:09:03.768Z,99847.09
2019-05-22T17:11:33.053Z,99844.70
2019-05-22T17:14:03.372Z,99851.26
2019-05-22T17:16:34.091Z,99855.12
2019-05-22T17:19:23.347Z,99852.42
2019-05-22T17:21:35.819Z,99861.02
2019-05-22T17:24:05.656Z,99861.63
2019-05-22T17:26:35.481Z,99868.34
2019-05-22T17:29:04.571Z,99866.04
2019-05-22T17:31:33.609Z,99869.95
2019-05-22T17:34:02.875Z,99868.08
2019-05-22T17:36:32.358Z,99867.81
2019-05-22T17:39:01.889Z,99868.38
2019-05-22T17:41:32.461Z,99873.39
2019-05-22T17:44:02.334Z,99874.79
2019-05-22T17:46:32.198Z,99872.77
2019-05-22T17:49:01.411Z,99874.83
2019-05-22T17:51:31.093Z,99878.31
2019-05-22T17:54:00.470Z,99886.89
2019-05-22T17:56:29.542Z,99887.67
2019-05-22T17:58:58.720Z,99884.98
2019-05-22T18:01:27.983Z,99886.64
2019-05-22T18:03:57.460Z,99891.24
2019-05-22T18:06:26.663Z,99892.80
2019-05-22T18:08:55.732Z,99887.08
2019-05-22T18:11:24.930Z,99893.32
2019-05-22T18:14:00.945Z,99898.52
2019-05-22T18:16:31.233Z,99901.69
2019-05-22T18:19:00.982Z,99908.14
2019-05-22T18:21:31.225Z,99908.72
2019-05-22T18:24:00.481Z,99910.95
2019-05-22T18:26:30.061Z,99906.53
2019-05-22T18:28:59.108Z,99910.56
2019-05-22T18:31:28.300Z,99905.31
2019-05-22T18:33:57.362Z,99907.55
2019-05-22T18:36:26.394Z,99914.18
2019-05-22T18:38:55.402Z,99911.88
2019-05-22T18:41:24.536Z,99915.81
2019-05-22T18:43:54.183Z,99915.81
2019-05-22T18:46:23.483Z,99917.48
2019-05-22T18:48:52.784Z,99928.03
2019-05-22T18:51:21.803Z,99925.23
2019-05-22T18:53:51.271Z,99928.14
2019-05-22T18:56:20.545Z,99929.58
2019-05-22T18:58:49.648Z,99937.44
2019-05-22T19:01:18.914Z,99939.84
2019-05-22T19:03:47.951Z,99942.34
2019-05-22T19:06:29.644Z,99947.20
2019-05-22T19:08:48.352Z,99941.17
2019-05-22T19:11:17.437Z,99953.99
2019-05-22T19:13:46.525Z,99953.13
2019-05-22T19:16:15.626Z,99959.16
2019-05-22T19:18:44.843Z,99963.06
2019-05-22T19:21:14.534Z,99966.41
2019-05-22T19:23:43.577Z,99964.78
2019-05-22T19:26:12.675Z,99963.72
2019-05-22T19:28:44.186Z,99971.48
2019-05-22T19:31:12.801Z,99979.02
2019-05-22T19:33:41.853Z,99986.12
2019-05-22T19:36:10.965Z,99982.97
2019-05-22T19:38:39.998Z,99984.11
2019-05-22T19:41:09.610Z,99986.13
2019-05-22T19:43:39.144Z,99991.69
2019-05-22T19:46:08.756Z,99983.55
2019-05-22T19:48:37.789Z,99994.16
2019-05-22T19:51:07.253Z,99994.29
2019-05-22T19:53:36.646Z,99989.67
2019-05-22T19:56:06.517Z,99988.99
2019-05-22T19:58:35.798Z,99989.66
2019-05-22T20:01:05.371Z,99989.47
2019-05-22T20:03:35.038Z,99982.63
2019-05-22T20:06:05.511Z,99990.39
2019-05-22T20:08:36.492Z,99991.36
2019-05-22T20:11:05.722Z,99990.61
2019-05-22T20:13:35.311Z,99988.59
2019-05-22T20:16:04.793Z,99986.11
2019-05-22T20:18:34.084Z,99991.68
2019-05-22T20:21:03.691Z,99989.48
2019-05-22T20:23:36.572Z,99994.36
2019-05-22T20:26:04.979Z,99993.78
2019-05-22T20:28:34.037Z,99996.86
2019-05-22T20:31:03.168Z,100002.27
2019-05-22T20:33:32.354Z,99997.95
2019-05-22T20:36:01.726Z,100002.59
2019-05-22T20:38:31.413Z,100005.24
2019-05-22T20:41:00.590Z,100005.89
2019-05-22T20:43:30.728Z,100015.67
2019-05-22T20:46:00.509Z,100016.07
2019-05-22T20:48:30.149Z,100014.88
2019-05-22T20:50:59.875Z,100017.56
2019-05-22T20:53:30.307Z,100021.64
2019-05-22T20:55:59.894Z,100020.45
2019-05-22T20:58:30.581Z,100021.72
2019-05-22T21:01:00.773Z,100016.69
2019-05-22T21:03:30.487Z,100021.00
2019-05-22T21:06:00.169Z,100020.94
2019-05-22T21:08:29.278Z,100025.82
2019-05-22T21:10:58.839Z,100029.55
2019-05-22T21:13:28.534Z,100033.88
2019-05-22T21:15:58.608Z,100035.00
2019-05-22T21:18:45.480Z,100030.22
2019-05-22T21:21:15.974Z,100030.77
2019-05-22T21:23:45.089Z,100026.27
2019-05-22T21:26:15.597Z,100028.09
2019-05-22T21:28:45.786Z,100029.35
2019-05-22T21:31:16.522Z,100032.57
2019-05-22T21:33:46.170Z,100034.38
2019-05-22T21:36:16.360Z,100040.71
2019-05-22T21:38:46.195Z,100042.81
2019-05-22T21:41:16.348Z,100042.74
2019-05-22T21:43:45.857Z,100036.05
2019-05-22T21:46:14.937Z,100034.78
2019-05-22T21:48:44.998Z,100039.52
2019-05-22T21:51:14.764Z,100040.02
2019-05-22T21:53:44.544Z,100045.38
2019-05-22T21:56:13.702Z,100037.16
2019-05-22T21:58:43.437Z,100042.92
2019-05-22T22:01:12.502Z,100041.36
2019-05-22T22:03:58.335Z,100044.92
2019-05-22T22:06:32.749Z,100044.70
2019-05-22T22:09:00.155Z,100047.22
2019-05-22T22:11:29.338Z,100037.36
2019-05-22T22:13:58.817Z,100038.23
2019-05-22T22:16:28.202Z,100047.20
2019-05-22T22:18:57.227Z,100049.02
2019-05-22T22:21:27.520Z,100049.98
2019-05-22T22:23:56.599Z,100046.20
2019-05-22T22:26:26.713Z,100054.19
2019-05-22T22:28:57.548Z,100043.13
2019-05-22T22:31:28.234Z,100048.48
2019-05-22T22:34:02.275Z,100049.42
2019-05-22T22:36:31.783Z,100046.12
2019-05-22T22:39:00.874Z,100050.53
2019-05-22T22:41:29.885Z,100053.35
2019-05-22T22:43:59.415Z,100047.21
2019-05-22T22:46:46.870Z,100051.93
2019-05-22T22:49:17.704Z,100045.17
2019-05-22T22:51:47.576Z,100052.16
2019-05-22T22:54:17.842Z,100048.42
2019-05-22T22:56:47.551Z,100048.19
2019-05-22T22:59:17.285Z,100048.09
2019-05-22T23:01:50.373Z,100058.31
2019-05-22T23:04:19.876Z,100051.92
2019-05-22T23:06:49.024Z,100056.56
2019-05-22T23:09:18.071Z,100054.16
2019-05-22T23:11:48.516Z,100063.05
2019-05-22T23:14:19.479Z,100058.55
2019-05-22T23:16:48.704Z,100062.50
2019-05-22T23:19:33.791Z,100066.05
2019-05-22T23:22:03.093Z,100066.82
2019-05-22T23:24:32.968Z,100064.78
2019-05-22T23:27:02.179Z,100070.47
2019-05-22T23:29:32.951Z,100068.26
2019-05-22T23:32:04.112Z,100069.66
2019-05-22T23:34:33.326Z,100077.05
2019-05-22T23:37:02.868Z,100079.03
2019-05-22T23:39:32.692Z,100073.20
2019-05-22T23:42:07.301Z,100069.19
2019-05-22T23:44:36.795Z,100071.53
2019-05-22T23:47:07.512Z,100072.27
2019-05-22T23:49:37.348Z,100073.84
2019-05-22T23:52:08.254Z,100072.44
2019-05-22T23:54:38.916Z,100067.22
2019-05-22T23:57:09.917Z,100072.09
2019-05-22T23:59:40.596Z,100063.23
